Time;durP1;ratioP1;P1;durP2;ratioP2;P2;SDS_P1;SDS_P2;PMS_P1;PMS_P2;Temp;Humidity;BMP_temperature;BMP_pressure;BME280_temperature;BME280_humidity;BME280_pressure;Samples;Min_cycle;Max_cycle;Signal;HPM_P1;HPM_P2
2021/12/30 00:00:22;;;;;;;2.92;2.00;;;;;;;;;;4949701;28;20063;-65
2021/12/30 00:02:53;;;;;;;4.07;2.30;;;;;;;;;;4939046;28;20058;-64
2021/12/30 00:05:24;;;;;;;5.35;2.22;;;;;;;;;;4925335;29;20068;-63
2021/12/30 00:07:55;;;;;;;3.03;2.03;;;;;;;;;;4930334;29;20063;-64
2021/12/30 00:10:26;;;;;;;3.63;1.52;;;;;;;;;;4895207;29;20057;-65
2021/12/30 00:12:57;;;;;;;2.20;1.77;;;;;;;;;;4895330;29;20056;-64
2021/12/30 00:15:28;;;;;;;2.97;1.80;;;;;;;;;;4895430;29;20614;-64
2021/12/30 00:17:58;;;;;;;2.90;2.00;;;;;;;;;;4904407;29;20044;-65
2021/12/30 00:20:29;;;;;;;3.97;2.47;;;;;;;;;;4915788;29;20064;-65
2021/12/30 00:23:02;;;;;;;10.27;1.65;;;;;;;;;;4923804;29;20051;-65
2021/12/30 00:25:39;;;;;;;2.38;1.70;;;;;;;;;;4913873;29;20055;-65
2021/12/30 00:28:12;;;;;;;3.70;2.17;;;;;;;;;;4913565;29;20078;-64
2021/12/30 00:30:44;;;;;;;4.43;2.15;;;;;;;;;;4913729;29;20052;-65
2021/12/30 00:33:18;;;;;;;7.90;2.58;;;;;;;;;;4895151;29;20881;-64
2021/12/30 00:35:53;;;;;;;4.30;2.00;;;;;;;;;;4859334;29;20399;-64
2021/12/30 00:38:23;;;;;;;4.03;1.80;;;;;;;;;;4866563;29;20065;-65
2021/12/30 00:40:54;;;;;;;3.03;1.63;;;;;;;;;;4875852;29;20436;-65
2021/12/30 00:43:25;;;;;;;2.45;1.27;;;;;;;;;;4876389;29;20106;-65
2021/12/30 00:45:55;;;;;;;3.17;2.08;;;;;;;;;;4894432;29;20097;-65
2021/12/30 00:48:26;;;;;;;2.47;1.70;;;;;;;;;;4906841;29;20539;-65
2021/12/30 00:50:56;;;;;;;4.57;1.55;;;;;;;;;;4901547;29;20059;-64
2021/12/30 00:53:27;;;;;;;2.90;2.30;;;;;;;;;;4863704;29;20068;-65
2021/12/30 00:55:58;;;;;;;3.22;1.60;;;;;;;;;;4907125;29;20060;-63
2021/12/30 00:58:28;;;;;;;4.65;1.70;;;;;;;;;;4894735;29;20060;-64
2021/12/30 01:00:59;;;;;;;3.65;1.50;;;;;;;;;;4906962;29;20056;-64
2021/12/30 01:03:30;;;;;;;2.35;1.70;;;;;;;;;;4897627;29;20389;-65
2021/12/30 01:06:01;;;;;;;3.28;1.27;;;;;;;;;;4894654;29;20064;-64
2021/12/30 01:08:32;;;;;;;3.08;1.88;;;;;;;;;;4899204;29;20071;-65
2021/12/30 01:11:07;;;;;;;4.28;2.13;;;;;;;;;;4924113;29;20082;-64
2021/12/30 01:13:45;;;;;;;4.70;1.85;;;;;;;;;;4932632;29;20451;-66
2021/12/30 01:16:17;;;;;;;2.85;1.67;;;;;;;;;;4932382;29;20059;-66
2021/12/30 01:21:34;;;;;;;3.15;1.30;;;;;;;;;;4931879;29;20052;-64
2021/12/30 01:24:05;;;;;;;5.18;1.60;;;;;;;;;;4964543;28;20050;-64
2021/12/30 01:26:35;;;;;;;4.35;1.58;;;;;;;;;;4970241;28;20062;-64
2021/12/30 01:29:06;;;;;;;3.13;1.88;;;;;;;;;;4970515;28;20047;-64
2021/12/30 01:31:36;;;;;;;4.97;1.58;;;;;;;;;;4970262;28;20066;-64
2021/12/30 01:34:22;;;;;;;3.78;1.40;;;;;;;;;;4970345;28;20407;-65
2021/12/30 01:36:54;;;;;;;6.90;2.42;;;;;;;;;;4901180;29;20067;-67
2021/12/30 01:39:24;;;;;;;2.55;1.58;;;;;;;;;;4912963;29;20087;-65
2021/12/30 01:41:55;;;;;;;3.05;1.70;;;;;;;;;;4912843;29;20463;-64
2021/12/30 01:44:28;;;;;;;4.65;1.63;;;;;;;;;;4964099;28;20465;-64
2021/12/30 01:46:58;;;;;;;2.15;1.33;;;;;;;;;;4970434;28;20388;-65
2021/12/30 01:49:29;;;;;;;2.60;1.65;;;;;;;;;;4940837;28;20043;-64
2021/12/30 01:52:00;;;;;;;1.92;1.23;;;;;;;;;;4938815;29;20751;-64
2021/12/30 01:54:31;;;;;;;3.03;1.95;;;;;;;;;;4897899;29;20068;-64
2021/12/30 01:57:06;;;;;;;2.85;1.73;;;;;;;;;;4898232;29;20057;-64
2021/12/30 01:59:36;;;;;;;3.38;1.75;;;;;;;;;;4898223;29;20064;-64
2021/12/30 02:02:06;;;;;;;4.65;2.40;;;;;;;;;;4885787;29;20072;-64
2021/12/30 02:04:37;;;;;;;2.33;1.23;;;;;;;;;;4879177;29;20065;-63
2021/12/30 02:07:09;;;;;;;4.00;1.90;;;;;;;;;;4894368;29;20071;-64
2021/12/30 02:09:40;;;;;;;3.70;1.83;;;;;;;;;;4897390;29;20056;-64
2021/12/30 02:12:10;;;;;;;4.03;2.45;;;;;;;;;;4897270;29;20056;-64
2021/12/30 02:14:40;;;;;;;4.00;1.60;;;;;;;;;;4895433;29;20056;-64
2021/12/30 02:17:10;;;;;;;4.47;2.30;;;;;;;;;;4918054;29;20052;-65
2021/12/30 02:19:40;;;;;;;4.53;2.33;;;;;;;;;;4935767;29;20114;-64
2021/12/30 02:22:11;;;;;;;3.53;2.30;;;;;;;;;;4935442;29;20067;-64
2021/12/30 02:24:51;;;;;;;6.55;2.40;;;;;;;;;;4949356;28;20055;-63
2021/12/30 02:27:21;;;;;;;4.72;2.67;;;;;;;;;;4993466;28;20156;-64
2021/12/30 02:29:51;;;;;;;5.22;2.50;;;;;;;;;;5004745;28;20050;-65
2021/12/30 02:32:22;;;;;;;3.80;2.03;;;;;;;;;;4954339;28;20439;-63
2021/12/30 02:34:54;;;;;;;6.63;3.20;;;;;;;;;;4954663;29;20047;-64
2021/12/30 02:37:24;;;;;;;5.50;2.90;;;;;;;;;;4954369;29;20059;-64
2021/12/30 02:39:54;;;;;;;4.45;3.00;;;;;;;;;;4954437;29;20163;-65
2021/12/30 02:42:25;;;;;;;5.57;3.33;;;;;;;;;;4954343;29;20067;-67
2021/12/30 02:44:56;;;;;;;4.60;2.10;;;;;;;;;;4954669;29;20519;-65
2021/12/30 02:47:33;;;;;;;4.32;2.70;;;;;;;;;;4948136;28;20065;-65
2021/12/30 02:50:04;;;;;;;7.20;2.92;;;;;;;;;;4954050;29;20384;-65
2021/12/30 02:52:34;;;;;;;3.97;2.05;;;;;;;;;;4953977;29;20446;-65
2021/12/30 02:55:05;;;;;;;4.60;2.83;;;;;;;;;;4934912;29;20071;-66
2021/12/30 02:57:36;;;;;;;4.15;1.98;;;;;;;;;;4896502;29;20052;-66
2021/12/30 03:00:08;;;;;;;8.18;2.30;;;;;;;;;;4896614;29;20061;-65
2021/12/30 03:02:39;;;;;;;9.10;3.30;;;;;;;;;;4896826;29;20069;-65
2021/12/30 03:05:15;;;;;;;4.45;2.30;;;;;;;;;;4893144;29;20507;-64
2021/12/30 03:07:45;;;;;;;6.60;2.60;;;;;;;;;;4900398;29;20060;-65
2021/12/30 03:10:19;;;;;;;5.85;2.65;;;;;;;;;;4907771;29;20067;-65
2021/12/30 03:12:55;;;;;;;6.35;3.10;;;;;;;;;;4869117;29;20563;-66
2021/12/30 03:15:27;;;;;;;6.00;3.30;;;;;;;;;;4915323;29;20056;-65
2021/12/30 03:17:58;;;;;;;5.65;3.60;;;;;;;;;;4915683;29;20800;-65
2021/12/30 03:20:31;;;;;;;5.15;3.03;;;;;;;;;;4915471;29;20516;-66
2021/12/30 03:23:03;;;;;;;6.75;3.15;;;;;;;;;;4920644;29;20528;-65
2021/12/30 03:25:33;;;;;;;5.18;3.15;;;;;;;;;;4912499;29;20056;-66
2021/12/30 03:28:05;;;;;;;7.50;3.10;;;;;;;;;;4903333;29;20056;-65
2021/12/30 03:30:35;;;;;;;8.35;3.33;;;;;;;;;;4885066;29;20052;-65
2021/12/30 03:33:05;;;;;;;7.28;3.30;;;;;;;;;;4902060;29;20470;-65
2021/12/30 03:35:37;;;;;;;5.55;3.33;;;;;;;;;;4912951;29;20063;-67
2021/12/30 03:38:07;;;;;;;8.23;2.97;;;;;;;;;;4933976;29;20052;-65
2021/12/30 03:40:37;;;;;;;4.65;2.80;;;;;;;;;;4934257;29;20063;-65
2021/12/30 03:43:07;;;;;;;6.05;2.67;;;;;;;;;;4934032;29;20063;-65
2021/12/30 03:45:38;;;;;;;7.10;3.95;;;;;;;;;;4937390;29;20526;-67
2021/12/30 03:48:08;;;;;;;6.63;3.70;;;;;;;;;;4964439;28;20062;-64
2021/12/30 03:50:43;;;;;;;8.27;3.83;;;;;;;;;;4972519;28;20062;-65
2021/12/30 03:53:15;;;;;;;5.35;3.70;;;;;;;;;;4951314;28;20057;-65
2021/12/30 03:55:48;;;;;;;5.93;3.33;;;;;;;;;;4952903;29;20055;-65
2021/12/30 03:58:19;;;;;;;5.30;3.10;;;;;;;;;;4937489;29;20059;-65
2021/12/30 04:00:49;;;;;;;9.30;3.65;;;;;;;;;;4949283;29;20055;-68
2021/12/30 04:03:20;;;;;;;7.78;3.78;;;;;;;;;;4960543;28;20059;-65
2021/12/30 04:05:50;;;;;;;6.30;4.15;;;;;;;;;;4971888;28;20048;-65
2021/12/30 04:08:20;;;;;;;11.52;4.35;;;;;;;;;;4987920;28;20065;-65
2021/12/30 04:10:51;;;;;;;6.43;3.33;;;;;;;;;;4971519;28;20051;-65
2021/12/30 04:13:20;;;;;;;8.02;4.03;;;;;;;;;;4971939;28;20055;-65
2021/12/30 04:15:51;;;;;;;6.03;3.15;;;;;;;;;;4949207;28;20051;-66
2021/12/30 04:18:22;;;;;;;7.35;3.65;;;;;;;;;;4971948;28;20059;-65
2021/12/30 04:20:53;;;;;;;5.30;3.53;;;;;;;;;;4955736;28;20054;-65
2021/12/30 04:23:24;;;;;;;6.43;3.38;;;;;;;;;;4978214;28;20065;-65
2021/12/30 04:25:54;;;;;;;4.90;3.33;;;;;;;;;;4952279;29;20562;-67
2021/12/30 04:28:25;;;;;;;6.00;2.78;;;;;;;;;;4952683;29;20430;-65
2021/12/30 04:30:55;;;;;;;7.25;3.92;;;;;;;;;;4952148;29;20066;-66
2021/12/30 04:33:26;;;;;;;5.35;3.03;;;;;;;;;;4972165;28;20597;-66
2021/12/30 04:35:56;;;;;;;7.28;3.53;;;;;;;;;;4990813;28;20054;-67
2021/12/30 04:38:30;;;;;;;6.88;2.78;;;;;;;;;;4975299;28;20081;-65
2021/12/30 04:41:01;;;;;;;6.00;3.20;;;;;;;;;;4971487;28;20051;-66
2021/12/30 04:43:32;;;;;;;5.72;3.20;;;;;;;;;;4975020;28;20054;-65
2021/12/30 04:46:03;;;;;;;5.13;3.13;;;;;;;;;;4990973;28;20070;-67
2021/12/30 04:48:34;;;;;;;6.38;3.50;;;;;;;;;;4990810;28;20058;-65
2021/12/30 04:51:05;;;;;;;6.55;3.90;;;;;;;;;;4951858;28;20066;-65
2021/12/30 04:53:35;;;;;;;5.65;3.33;;;;;;;;;;4952034;28;20510;-65
2021/12/30 04:56:05;;;;;;;6.85;3.85;;;;;;;;;;4932731;29;20052;-65
2021/12/30 04:58:36;;;;;;;6.93;3.55;;;;;;;;;;4897505;29;20358;-65
2021/12/30 05:01:07;;;;;;;6.35;3.80;;;;;;;;;;4913461;29;20496;-65
2021/12/30 05:03:38;;;;;;;4.40;2.78;;;;;;;;;;4933771;28;20419;-65
2021/12/30 05:06:09;;;;;;;8.80;4.03;;;;;;;;;;4920014;28;20051;-67
2021/12/30 05:08:39;;;;;;;5.95;2.85;;;;;;;;;;4951723;28;20542;-65
2021/12/30 05:11:09;;;;;;;5.85;3.70;;;;;;;;;;4951819;28;20122;-65
2021/12/30 05:13:39;;;;;;;7.13;3.38;;;;;;;;;;4942421;28;20047;-65
2021/12/30 05:16:10;;;;;;;6.82;3.42;;;;;;;;;;4904675;29;20515;-65
2021/12/30 05:18:40;;;;;;;8.48;4.22;;;;;;;;;;4942034;28;20056;-67
2021/12/30 05:21:11;;;;;;;8.27;3.92;;;;;;;;;;4932598;29;20067;-65
2021/12/30 05:23:42;;;;;;;6.32;4.18;;;;;;;;;;4954477;28;20062;-65
2021/12/30 05:26:11;;;;;;;6.63;4.03;;;;;;;;;;4970647;28;20152;-66
2021/12/30 05:28:45;;;;;;;6.40;3.88;;;;;;;;;;4964022;28;20059;-65
2021/12/30 05:31:16;;;;;;;7.68;3.85;;;;;;;;;;4990363;28;20058;-65
2021/12/30 05:33:46;;;;;;;7.22;3.40;;;;;;;;;;4960939;28;20058;-67
2021/12/30 05:36:16;;;;;;;5.88;4.10;;;;;;;;;;4980417;28;20055;-66
2021/12/30 05:38:47;;;;;;;11.35;5.13;;;;;;;;;;4970363;28;20058;-67
2021/12/30 05:41:18;;;;;;;5.95;3.83;;;;;;;;;;4970423;28;20486;-66
2021/12/30 05:43:48;;;;;;;9.38;4.20;;;;;;;;;;4970679;28;20061;-66
2021/12/30 05:46:19;;;;;;;7.25;3.40;;;;;;;;;;4970783;28;20055;-66
2021/12/30 05:48:50;;;;;;;8.27;3.53;;;;;;;;;;4903564;29;20070;-65
2021/12/30 05:51:21;;;;;;;5.60;4.15;;;;;;;;;;4919684;29;20060;-65
2021/12/30 05:53:52;;;;;;;12.13;4.78;;;;;;;;;;4951249;29;20082;-66
2021/12/30 05:56:23;;;;;;;6.30;4.40;;;;;;;;;;4951929;29;20059;-65
2021/12/30 05:58:52;;;;;;;6.63;4.22;;;;;;;;;;4950970;29;20055;-65
2021/12/30 06:01:23;;;;;;;8.57;4.13;;;;;;;;;;4961248;28;20070;-66
2021/12/30 06:03:53;;;;;;;9.75;4.50;;;;;;;;;;4954722;28;20082;-66
2021/12/30 06:06:25;;;;;;;7.25;4.47;;;;;;;;;;4970510;28;20063;-66
2021/12/30 06:08:55;;;;;;;8.25;4.55;;;;;;;;;;4970260;28;20047;-65
2021/12/30 06:11:25;;;;;;;7.65;4.85;;;;;;;;;;4941700;28;20078;-66
2021/12/30 06:13:55;;;;;;;9.27;4.63;;;;;;;;;;4950628;28;20052;-65
2021/12/30 06:16:26;;;;;;;8.05;4.43;;;;;;;;;;4935635;29;20055;-65
2021/12/30 06:18:57;;;;;;;6.90;4.20;;;;;;;;;;4951359;29;20055;-68
2021/12/30 06:21:28;;;;;;;7.07;4.03;;;;;;;;;;4931974;29;20416;-65
2021/12/30 06:23:58;;;;;;;6.20;4.10;;;;;;;;;;4912658;29;20060;-66
2021/12/30 06:26:28;;;;;;;5.75;3.80;;;;;;;;;;4922027;29;20147;-65
2021/12/30 06:28:58;;;;;;;7.18;4.10;;;;;;;;;;4934078;28;20067;-66
2021/12/30 06:31:28;;;;;;;7.00;4.03;;;;;;;;;;4950977;29;20059;-67
2021/12/30 06:33:59;;;;;;;8.60;4.60;;;;;;;;;;4931628;29;20487;-66
2021/12/30 06:36:29;;;;;;;10.50;3.75;;;;;;;;;;4916027;29;20055;-67
2021/12/30 06:38:59;;;;;;;7.28;4.38;;;;;;;;;;4916295;29;20508;-66
2021/12/30 06:41:30;;;;;;;8.63;4.82;;;;;;;;;;4916613;29;20052;-66
2021/12/30 06:44:00;;;;;;;9.38;4.65;;;;;;;;;;4897241;29;20083;-67
2021/12/30 06:46:30;;;;;;;9.25;4.60;;;;;;;;;;4906194;29;20060;-66
2021/12/30 06:49:03;;;;;;;10.05;3.88;;;;;;;;;;4916054;29;20104;-66
2021/12/30 06:51:36;;;;;;;6.63;4.07;;;;;;;;;;4915611;29;20058;-67
2021/12/30 06:54:07;;;;;;;7.90;4.82;;;;;;;;;;4896857;29;20068;-67
2021/12/30 06:56:37;;;;;;;10.68;4.78;;;;;;;;;;4878033;29;20069;-67
2021/12/30 06:59:07;;;;;;;10.68;4.15;;;;;;;;;;4869049;29;20053;-66
2021/12/30 07:01:40;;;;;;;7.40;4.70;;;;;;;;;;4858923;29;20065;-66
2021/12/30 07:04:11;;;;;;;8.68;5.38;;;;;;;;;;4872854;29;20086;-66
2021/12/30 07:06:41;;;;;;;8.57;4.97;;;;;;;;;;4896795;29;20515;-66
2021/12/30 07:09:11;;;;;;;9.68;5.30;;;;;;;;;;4897025;29;20063;-66
2021/12/30 07:11:42;;;;;;;10.00;4.95;;;;;;;;;;4886953;29;20465;-66
2021/12/30 07:14:12;;;;;;;6.63;3.97;;;;;;;;;;4887942;29;20428;-68
2021/12/30 07:16:42;;;;;;;8.25;4.80;;;;;;;;;;4896802;29;20057;-66
2021/12/30 07:19:13;;;;;;;6.90;4.65;;;;;;;;;;4877867;29;20088;-67
2021/12/30 07:21:44;;;;;;;7.32;4.43;;;;;;;;;;4890125;29;20061;-67
2021/12/30 07:24:15;;;;;;;8.82;4.72;;;;;;;;;;4915308;29;20516;-68
2021/12/30 07:26:45;;;;;;;12.43;4.55;;;;;;;;;;4915288;29;20067;-67
2021/12/30 07:29:15;;;;;;;7.53;4.72;;;;;;;;;;4914878;29;20535;-67
2021/12/30 07:31:46;;;;;;;8.38;4.80;;;;;;;;;;4915193;29;20110;-67
2021/12/30 07:34:17;;;;;;;6.75;3.67;;;;;;;;;;4934870;28;20419;-66
2021/12/30 07:36:47;;;;;;;7.05;4.80;;;;;;;;;;4953621;28;20063;-69
2021/12/30 07:39:17;;;;;;;6.70;4.70;;;;;;;;;;4956995;28;20065;-67
2021/12/30 07:41:48;;;;;;;7.78;4.60;;;;;;;;;;4966521;28;20046;-67
2021/12/30 07:44:21;;;;;;;7.07;4.57;;;;;;;;;;4953033;28;20048;-67
2021/12/30 07:47:13;;;;;;;8.48;4.32;;;;;;;;;;4953143;28;20063;-67
2021/12/30 07:49:43;;;;;;;10.45;4.78;;;;;;;;;;4952849;28;20058;-67
2021/12/30 07:52:13;;;;;;;8.73;3.72;;;;;;;;;;4933871;29;20385;-67
2021/12/30 07:54:44;;;;;;;9.55;4.78;;;;;;;;;;4895728;29;20052;-68
2021/12/30 07:57:21;;;;;;;6.65;4.38;;;;;;;;;;4908397;29;20148;-67
2021/12/30 07:59:53;;;;;;;7.45;4.68;;;;;;;;;;4895700;29;20071;-68
2021/12/30 08:02:23;;;;;;;9.13;4.85;;;;;;;;;;4895740;29;20052;-67
2021/12/30 08:04:53;;;;;;;11.07;3.70;;;;;;;;;;4895891;29;20429;-68
2021/12/30 08:07:24;;;;;;;7.65;4.47;;;;;;;;;;4888163;29;20171;-67
2021/12/30 08:09:54;;;;;;;7.80;4.95;;;;;;;;;;4877120;29;20084;-68
2021/12/30 08:12:25;;;;;;;6.85;4.07;;;;;;;;;;4873528;29;20438;-68
2021/12/30 08:14:56;;;;;;;18.30;4.88;;;;;;;;;;4858436;29;20065;-68
2021/12/30 08:17:26;;;;;;;11.00;6.07;;;;;;;;;;4858409;29;20073;-68
2021/12/30 08:19:56;;;;;;;8.25;4.00;;;;;;;;;;4858125;29;20441;-68
2021/12/30 08:22:26;;;;;;;7.38;3.90;;;;;;;;;;4895068;29;20172;-68
2021/12/30 08:24:57;;;;;;;8.60;3.75;;;;;;;;;;4895410;29;20075;-67
2021/12/30 08:27:27;;;;;;;6.45;4.05;;;;;;;;;;4914084;29;20074;-68
2021/12/30 08:29:58;;;;;;;9.70;5.35;;;;;;;;;;4896461;29;20052;-68
2021/12/30 08:32:28;;;;;;;8.43;4.38;;;;;;;;;;4913805;29;20060;-68
2021/12/30 08:34:58;;;;;;;8.68;4.93;;;;;;;;;;4894877;29;20044;-69
2021/12/30 08:37:29;;;;;;;8.18;4.68;;;;;;;;;;4913558;29;20055;-68
2021/12/30 08:40:01;;;;;;;9.63;4.53;;;;;;;;;;4867311;29;20072;-67
2021/12/30 08:42:32;;;;;;;7.93;4.63;;;;;;;;;;4858081;29;20068;-67
2021/12/30 08:45:04;;;;;;;8.57;4.45;;;;;;;;;;4867001;29;20064;-68
2021/12/30 08:47:35;;;;;;;7.65;4.90;;;;;;;;;;4876409;29;20064;-67
2021/12/30 08:50:11;;;;;;;10.07;4.78;;;;;;;;;;4857897;29;20066;-68
2021/12/30 08:52:42;;;;;;;14.00;4.75;;;;;;;;;;4839296;29;20510;-68
2021/12/30 08:55:14;;;;;;;7.93;5.38;;;;;;;;;;4839320;29;20061;-71
2021/12/30 08:57:47;;;;;;;9.90;5.03;;;;;;;;;;4882562;29;20068;-68
2021/12/30 09:00:26;;;;;;;8.80;4.30;;;;;;;;;;4853881;29;20410;-69
2021/12/30 09:02:58;;;;;;;7.97;4.55;;;;;;;;;;4857414;29;20057;-69
2021/12/30 09:05:29;;;;;;;10.02;4.90;;;;;;;;;;4851246;29;20502;-68
2021/12/30 09:08:00;;;;;;;11.82;4.93;;;;;;;;;;4850989;29;20489;-68
2021/12/30 09:10:37;;;;;;;9.80;5.18;;;;;;;;;;4857619;29;20498;-68
2021/12/30 09:13:09;;;;;;;14.02;4.80;;;;;;;;;;4870621;29;20064;-68
2021/12/30 09:15:40;;;;;;;8.75;4.85;;;;;;;;;;4888847;29;20575;-68
2021/12/30 09:18:10;;;;;;;7.75;4.80;;;;;;;;;;4893971;29;20067;-69
2021/12/30 09:20:42;;;;;;;14.63;5.03;;;;;;;;;;4912885;29;20059;-72
2021/12/30 09:23:15;;;;;;;14.23;5.18;;;;;;;;;;4879162;29;20056;-69
2021/12/30 09:25:45;;;;;;;8.45;4.25;;;;;;;;;;4912723;29;20063;-68
2021/12/30 09:28:17;;;;;;;9.10;4.28;;;;;;;;;;4912639;29;20166;-69
2021/12/30 09:30:47;;;;;;;8.18;4.90;;;;;;;;;;4918408;29;20051;-68
2021/12/30 09:33:18;;;;;;;8.40;5.05;;;;;;;;;;4888994;29;20506;-68
2021/12/30 09:35:48;;;;;;;10.57;3.90;;;;;;;;;;4914085;29;20048;-68
2021/12/30 09:38:20;;;;;;;8.95;4.65;;;;;;;;;;4913395;29;20052;-68
2021/12/30 09:40:51;;;;;;;6.68;4.50;;;;;;;;;;4934106;29;20467;-69
2021/12/30 09:43:21;;;;;;;6.80;5.32;;;;;;;;;;4930874;29;20199;-68
2021/12/30 09:45:52;;;;;;;9.43;4.85;;;;;;;;;;4924350;29;20059;-70
2021/12/30 09:48:23;;;;;;;8.82;4.72;;;;;;;;;;4892398;29;20060;-67
2021/12/30 09:50:55;;;;;;;6.20;4.30;;;;;;;;;;4958173;28;20204;-68
2021/12/30 09:53:25;;;;;;;;;;;;;;;;;;4951219;29;20507;-68
2021/12/30 09:55:57;;;;;;;11.90;6.10;;;;;;;;;;4951236;29;19922;-69
2021/12/30 09:58:29;;;;;;;13.32;6.00;;;;;;;;;;4950697;29;20059;-68
2021/12/30 10:01:00;;;;;;;8.70;6.43;;;;;;;;;;4950609;29;20043;-68
2021/12/30 10:03:31;;;;;;;9.93;5.60;;;;;;;;;;4929398;29;20467;-68
2021/12/30 10:06:10;;;;;;;9.63;6.47;;;;;;;;;;4918332;29;20052;-68
2021/12/30 10:09:00;;;;;;;9.02;5.22;;;;;;;;;;4969103;28;20071;-68
2021/12/30 10:11:30;;;;;;;9.45;5.03;;;;;;;;;;4973722;28;20170;-69
2021/12/30 10:14:00;;;;;;;8.25;5.55;;;;;;;;;;4973717;28;20055;-68
2021/12/30 10:16:31;;;;;;;10.65;5.30;;;;;;;;;;4921689;29;20059;-68
2021/12/30 10:19:07;;;;;;;10.00;5.93;;;;;;;;;;4957169;28;20055;-68
2021/12/30 10:21:40;;;;;;;7.65;4.50;;;;;;;;;;4973070;28;20047;-69
2021/12/30 10:24:12;;;;;;;9.18;4.72;;;;;;;;;;4973786;28;20050;-67
2021/12/30 10:26:57;;;;;;;8.75;5.55;;;;;;;;;;4970012;28;20051;-68
2021/12/30 10:29:28;;;;;;;9.57;4.60;;;;;;;;;;4961907;28;20070;-69
2021/12/30 10:31:58;;;;;;;5.80;3.88;;;;;;;;;;4936992;29;20063;-68
2021/12/30 10:34:28;;;;;;;5.72;3.15;;;;;;;;;;4919173;29;20447;-68
2021/12/30 10:36:58;;;;;;;4.93;3.00;;;;;;;;;;4921977;29;20052;-67
2021/12/30 10:39:32;;;;;;;8.02;3.53;;;;;;;;;;4932051;29;20063;-64
2021/12/30 10:42:05;;;;;;;5.80;3.22;;;;;;;;;;4931635;29;20052;-69
2021/12/30 10:45:06;;;;;;;4.40;3.03;;;;;;;;;;4943252;29;20051;-64
2021/12/30 10:47:56;;;;;;;6.20;3.05;;;;;;;;;;4968813;28;20549;-64
2021/12/30 10:50:27;;;;;;;6.53;3.15;;;;;;;;;;4923847;29;20063;-65
2021/12/30 10:52:57;;;;;;;6.03;2.40;;;;;;;;;;4915181;29;20063;-67
2021/12/30 10:55:32;;;;;;;4.53;2.90;;;;;;;;;;4918722;29;20056;-65
2021/12/30 10:58:28;;;;;;;3.80;2.53;;;;;;;;;;4927246;29;20528;-63
2021/12/30 11:01:18;;;;;;;4.93;2.88;;;;;;;;;;4888865;29;20065;-63
2021/12/30 11:03:58;;;;;;;4.72;2.83;;;;;;;;;;4897159;29;20053;-64
2021/12/30 11:06:29;;;;;;;6.63;3.00;;;;;;;;;;4885971;29;20052;-64
2021/12/30 11:09:08;;;;;;;4.22;2.97;;;;;;;;;;4911567;29;20451;-64
2021/12/30 11:11:48;;;;;;;4.18;2.80;;;;;;;;;;4944872;29;20055;-65
2021/12/30 11:14:24;;;;;;;7.72;2.67;;;;;;;;;;4932334;29;20392;-70
2021/12/30 11:17:18;;;;;;;3.92;2.00;;;;;;;;;;4929962;29;20060;-65
2021/12/30 11:20:03;;;;;;;4.07;2.70;;;;;;;;;;4905970;29;20079;-66
2021/12/30 11:22:36;;;;;;;3.78;2.30;;;;;;;;;;4923256;29;20067;-65
2021/12/30 11:25:10;;;;;;;5.63;2.33;;;;;;;;;;4906377;29;20044;-66
2021/12/30 11:27:41;;;;;;;4.57;2.63;;;;;;;;;;4918809;29;20060;-63
2021/12/30 11:30:17;;;;;;;4.45;2.40;;;;;;;;;;4925979;29;20052;-64
2021/12/30 11:32:48;;;;;;;3.85;3.05;;;;;;;;;;4925163;29;20062;-62
2021/12/30 11:35:24;;;;;;;4.18;2.67;;;;;;;;;;4923819;29;20531;-64
2021/12/30 11:37:58;;;;;;;6.43;2.20;;;;;;;;;;4929840;29;20075;-67
2021/12/30 11:40:29;;;;;;;3.53;2.30;;;;;;;;;;4920271;29;20047;-63
2021/12/30 11:43:12;;;;;;;4.75;2.42;;;;;;;;;;4933076;29;20047;-67
2021/12/30 11:45:44;;;;;;;4.03;2.15;;;;;;;;;;4896003;29;20449;-64
2021/12/30 11:48:29;;;;;;;3.70;2.47;;;;;;;;;;4910557;29;20052;-64
2021/12/30 11:51:04;;;;;;;4.43;2.63;;;;;;;;;;4921762;29;20056;-64
2021/12/30 11:53:38;;;;;;;4.40;2.80;;;;;;;;;;4861537;29;20052;-63
2021/12/30 11:56:22;;;;;;;7.05;2.60;;;;;;;;;;4910455;29;20056;-63
2021/12/30 11:58:55;;;;;;;4.20;2.60;;;;;;;;;;4903594;29;20060;-65
2021/12/30 12:01:25;;;;;;;5.70;2.50;;;;;;;;;;4903882;29;20052;-64
2021/12/30 12:04:00;;;;;;;6.15;3.00;;;;;;;;;;4926807;29;20060;-65
2021/12/30 12:06:53;;;;;;;7.07;2.33;;;;;;;;;;4911308;29;20056;-64
2021/12/30 12:09:25;;;;;;;;;;;;;;;;;;4908749;29;20056;-64
2021/12/30 12:12:04;;;;;;;3.85;2.40;;;;;;;;;;4932251;29;19922;-64
2021/12/30 12:14:44;;;;;;;4.05;2.50;;;;;;;;;;4942013;29;20060;-65
2021/12/30 12:17:36;;;;;;;4.25;2.38;;;;;;;;;;4936085;29;20515;-66
2021/12/30 12:20:30;;;;;;;3.15;2.25;;;;;;;;;;4929460;28;20050;-65
2021/12/30 12:23:42;;;;;;;3.65;2.67;;;;;;;;;;4985384;28;20050;-63
2021/12/30 12:26:15;;;;;;;12.02;8.73;;;;;;;;;;4981924;28;20459;-64
2021/12/30 12:28:47;;;;;;;3.42;2.00;;;;;;;;;;4945385;29;20056;-66
2021/12/30 12:31:17;;;;;;;3.15;2.33;;;;;;;;;;4927783;29;20051;-63
2021/12/30 12:33:58;;;;;;;3.05;2.30;;;;;;;;;;4937083;28;20064;-63
2021/12/30 12:36:35;;;;;;;3.17;2.00;;;;;;;;;;4902673;29;20051;-61
2021/12/30 12:39:05;;;;;;;3.13;2.15;;;;;;;;;;4895231;29;20061;-64
2021/12/30 12:41:36;;;;;;;2.85;1.85;;;;;;;;;;4876166;29;20111;-63
2021/12/30 12:44:13;;;;;;;4.55;1.88;;;;;;;;;;4894824;29;20468;-64
2021/12/30 12:46:45;;;;;;;5.72;2.72;;;;;;;;;;4913569;29;20060;-64
2021/12/30 12:49:36;;;;;;;11.20;6.75;;;;;;;;;;4894926;29;20505;-62
2021/12/30 12:52:07;;;;;;;7.22;5.15;;;;;;;;;;4857757;29;20053;-63
2021/12/30 12:54:49;;;;;;;5.57;3.90;;;;;;;;;;4868937;29;20066;-63
2021/12/30 12:57:21;;;;;;;4.05;2.88;;;;;;;;;;4875919;29;20413;-63
2021/12/30 12:59:52;;;;;;;10.70;9.07;;;;;;;;;;4845116;29;20052;-63
2021/12/30 13:02:22;;;;;;;4.47;3.00;;;;;;;;;;4876315;29;20072;-62
2021/12/30 13:05:11;;;;;;;4.07;1.42;;;;;;;;;;4924424;29;20077;-63
2021/12/30 13:07:42;;;;;;;4.03;1.73;;;;;;;;;;4951431;29;20055;-63
2021/12/30 13:10:19;;;;;;;3.35;1.75;;;;;;;;;;4935250;29;20170;-65
2021/12/30 13:12:50;;;;;;;4.47;2.83;;;;;;;;;;4936522;29;20059;-62
2021/12/30 13:15:21;;;;;;;7.70;5.15;;;;;;;;;;4951371;29;20059;-65
2021/12/30 13:17:51;;;;;;;5.00;2.53;;;;;;;;;;4942034;29;20058;-62
2021/12/30 13:20:26;;;;;;;4.28;2.03;;;;;;;;;;4951644;29;20514;-63
2021/12/30 13:22:57;;;;;;;3.42;1.98;;;;;;;;;;4937464;29;20058;-63
2021/12/30 13:25:27;;;;;;;4.10;2.20;;;;;;;;;;4926141;29;20593;-62
2021/12/30 13:28:04;;;;;;;2.45;1.42;;;;;;;;;;4900440;29;20411;-63
2021/12/30 13:30:35;;;;;;;4.40;3.55;;;;;;;;;;4970290;28;20066;-63
2021/12/30 13:33:06;;;;;;;2.88;1.75;;;;;;;;;;4964175;28;20087;-66
2021/12/30 13:35:40;;;;;;;2.78;1.95;;;;;;;;;;4943389;28;20058;-62
2021/12/30 13:38:10;;;;;;;2.17;1.50;;;;;;;;;;4994805;28;20122;-64
2021/12/30 13:40:46;;;;;;;3.72;2.05;;;;;;;;;;5005862;28;20073;-62
2021/12/30 13:43:21;;;;;;;4.38;2.78;;;;;;;;;;4981780;28;20046;-63
2021/12/30 13:45:57;;;;;;;4.72;1.92;;;;;;;;;;4961377;28;20062;-65
2021/12/30 13:48:34;;;;;;;3.75;2.10;;;;;;;;;;4990259;28;20046;-64
2021/12/30 13:51:10;;;;;;;3.60;1.77;;;;;;;;;;4964509;28;20053;-63
2021/12/30 13:53:43;;;;;;;3.03;2.40;;;;;;;;;;4988986;28;20058;-62
2021/12/30 13:56:24;;;;;;;3.08;2.00;;;;;;;;;;4988204;28;20050;-62
2021/12/30 13:58:56;;;;;;;7.40;4.28;;;;;;;;;;4988075;28;20046;-62
2021/12/30 14:01:39;;;;;;;3.72;2.92;;;;;;;;;;4989795;28;20054;-62
2021/12/30 14:04:13;;;;;;;3.25;1.92;;;;;;;;;;4987135;28;20553;-62
2021/12/30 14:06:47;;;;;;;4.88;1.92;;;;;;;;;;4983296;28;20061;-62
2021/12/30 14:09:18;;;;;;;2.60;1.73;;;;;;;;;;5011413;28;20065;-67
2021/12/30 14:11:50;;;;;;;;;;;;;;;;;;5001149;28;20528;-63
2021/12/30 14:14:25;;;;;;;3.05;1.27;;;;;;;;;;5052333;28;19921;-62
2021/12/30 14:16:58;;;;;;;2.78;1.60;;;;;;;;;;5048912;28;20065;-62
2021/12/30 14:19:33;;;;;;;3.67;1.60;;;;;;;;;;5058395;28;20049;-64
2021/12/30 14:22:06;;;;;;;2.30;1.63;;;;;;;;;;5062128;28;20543;-63
2021/12/30 14:24:40;;;;;;;2.45;2.25;;;;;;;;;;5022487;28;20505;-62
2021/12/30 14:27:20;;;;;;;11.88;7.80;;;;;;;;;;5042261;28;20058;-64
2021/12/30 14:29:51;;;;;;;2.97;1.90;;;;;;;;;;5043053;28;20045;-63
2021/12/30 14:32:25;;;;;;;3.97;1.73;;;;;;;;;;5022234;28;20052;-62
2021/12/30 14:35:07;;;;;;;3.08;1.83;;;;;;;;;;5012498;28;20053;-62
2021/12/30 14:37:44;;;;;;;2.88;1.58;;;;;;;;;;5009924;28;20073;-61
2021/12/30 14:40:19;;;;;;;3.40;1.30;;;;;;;;;;5012170;28;20061;-62
2021/12/30 14:43:01;;;;;;;2.95;1.83;;;;;;;;;;5009446;28;20046;-62
2021/12/30 14:45:43;;;;;;;4.95;2.53;;;;;;;;;;5009010;28;20536;-65
2021/12/30 14:48:14;;;;;;;3.08;2.08;;;;;;;;;;4999824;28;20049;-64
2021/12/30 14:51:19;;;;;;;2.88;1.85;;;;;;;;;;5007911;28;20816;-62
2021/12/30 14:53:49;;;;;;;6.00;2.15;;;;;;;;;;5000254;28;20053;-64
2021/12/30 14:56:19;;;;;;;2.53;1.70;;;;;;;;;;4960664;28;20054;-66
2021/12/30 14:58:50;;;;;;;3.55;1.58;;;;;;;;;;4930086;28;20053;-63
2021/12/30 15:01:20;;;;;;;2.80;1.52;;;;;;;;;;4965785;28;20059;-63
2021/12/30 15:03:51;;;;;;;2.00;1.60;;;;;;;;;;4960170;28;20048;-66
2021/12/30 15:06:23;;;;;;;3.53;1.42;;;;;;;;;;4977028;28;20058;-62
2021/12/30 15:08:53;;;;;;;2.22;1.30;;;;;;;;;;4885669;29;20433;-63
2021/12/30 15:11:24;;;;;;;2.08;1.42;;;;;;;;;;4862036;29;20061;-63
2021/12/30 15:13:55;;;;;;;4.28;2.13;;;;;;;;;;4877666;29;20064;-64
2021/12/30 15:16:25;;;;;;;3.58;2.00;;;;;;;;;;4877611;29;20060;-62
2021/12/30 15:18:56;;;;;;;3.00;1.58;;;;;;;;;;4855961;29;20064;-64